Time,TemperatureF,DewpointF,PressureIn,WindDirection,WindDirectionDegrees,WindSpeedMPH,WindSpeedGustMPH,Humidity,HourlyPrecipIn,Conditions,Clouds,dailyrainin,SoftwareType,DateUTC
2013-01-11 00:04:00,42.6,24.3,29.49,SSW,201,0.0,13.0,48,0.00,,,0.00,Wunderground v.1.15,2013-01-11 07:04:00,
2013-01-11 00:09:00,42.6,24.3,29.49,SW,229,1.0,13.0,48,0.00,,,0.00,Wunderground v.1.15,2013-01-11 07:09:00,
2013-01-11 00:14:00,42.5,24.7,29.49,SE,139,7.0,14.0,49,0.00,,,0.00,Wunderground v.1.15,2013-01-11 07:14:00,
2013-01-11 00:19:00,42.6,24.3,29.49,WNW,291,6.0,14.0,48,0.00,,,0.00,Wunderground v.1.15,2013-01-11 07:19:00,
2013-01-11 00:24:00,42.3,24.5,29.49,SSW,209,0.0,6.0,49,0.00,,,0.00,Wunderground v.1.15,2013-01-11 07:24:00,
2013-01-11 00:29:00,41.9,26.0,29.49,SW,226,1.0,6.0,53,0.00,,,0.00,Wunderground v.1.15,2013-01-11 07:29:00,
2013-01-11 00:34:00,41.3,26.3,29.49,WSW,252,0.0,6.0,55,0.00,,,0.00,Wunderground v.1.15,2013-01-11 07:34:00,
2013-01-11 00:39:00,40.9,26.4,29.49,NE,49,4.0,6.0,56,0.00,,,0.00,Wunderground v.1.15,2013-01-11 07:39:00,
2013-01-11 00:44:00,41.1,25.3,29.49,SE,140,4.0,8.0,53,0.00,,,0.00,Wunderground v.1.15,2013-01-11 07:44:00,
2013-01-11 00:49:00,41.5,25.6,29.49,ESE,119,2.0,10.0,53,0.00,,,0.00,Wunderground v.1.15,2013-01-11 07:49:00,
2013-01-11 00:54:00,41.8,25.4,29.49,SE,128,1.0,9.0,52,0.00,,,0.00,Wunderground v.1.15,2013-01-11 07:54:00,
2013-01-11 00:59:00,41.9,25.5,29.47,ESE,104,2.0,11.0,52,0.00,,,0.00,Wunderground v.1.15,2013-01-11 07:59:00,
2013-01-11 01:04:00,41.8,25.9,29.47,ESE,117,2.0,6.0,53,0.00,,,0.00,Wunderground v.1.15,2013-01-11 08:04:00,
2013-01-11 01:09:00,41.5,26.1,29.47,ESE,103,1.0,6.0,54,0.00,,,0.00,Wunderground v.1.15,2013-01-11 08:09:00,
2013-01-11 01:14:00,41.3,25.4,29.47,SE,138,1.0,12.0,53,0.00,,,0.00,Wunderground v.1.15,2013-01-11 08:14:00,
2013-01-11 01:19:00,41.3,25.4,29.47,SSE,159,6.0,17.0,53,0.00,,,0.00,Wunderground v.1.15,2013-01-11 08:19:00,
2013-01-11 01:24:00,40.8,27.6,29.47,SSE,157,10.0,19.0,59,0.00,,,0.00,Wunderground v.1.15,2013-01-11 08:24:00,
2013-01-11 01:29:00,39.9,28.3,29.48,SSW,196,5.0,19.0,63,0.00,,,0.00,Wunderground v.1.15,2013-01-11 08:29:00,
2013-01-11 01:34:00,39.3,28.1,29.48,South,188,2.0,11.0,64,0.00,,,0.00,Wunderground v.1.15,2013-01-11 08:34:00,
2013-01-11 01:39:00,39.1,28.3,29.48,SSW,207,2.0,11.0,65,0.00,,,0.00,Wunderground v.1.15,2013-01-11 08:39:00,
2013-01-11 01:44:00,38.3,29.0,29.50,WSW,240,4.0,17.0,69,0.00,,,0.00,Wunderground v.1.15,2013-01-11 08:44:00,
2013-01-11 01:49:00,36.2,28.4,29.50,WSW,249,6.0,18.0,73,0.00,,,0.00,Wunderground v.1.15,2013-01-11 08:49:00,
2013-01-11 01:54:00,34.6,28.1,29.50,SW,229,7.0,16.0,77,0.00,,,0.00,Wunderground v.1.15,2013-01-11 08:54:00,
2013-01-11 01:59:00,33.1,27.6,29.55,SSW,209,14.0,17.0,80,0.00,,,0.00,Wunderground v.1.15,2013-01-11 08:59:00,
2013-01-11 02:04:00,31.6,27.3,29.55,SSW,194,6.0,24.0,84,0.00,,,0.00,Wunderground v.1.15,2013-01-11 09:04:00,
2013-01-11 02:09:00,30.7,27.3,29.55,SW,232,4.0,24.0,87,0.00,,,0.00,Wunderground v.1.15,2013-01-11 09:09:00,
2013-01-11 02:14:00,30.3,27.4,29.58,WSW,244,10.0,21.0,89,0.00,,,0.00,Wunderground v.1.15,2013-01-11 09:14:00,
2013-01-11 02:19:00,30.0,27.4,29.58,SSW,197,1.0,21.0,90,0.00,,,0.00,Wunderground v.1.15,2013-01-11 09:19:00,
2013-01-11 02:24:00,29.8,27.2,29.58,SSW,207,2.0,11.0,90,0.00,,,0.00,Wunderground v.1.15,2013-01-11 09:24:00,
2013-01-11 02:29:00,29.7,27.4,29.58,SSW,211,2.0,16.0,91,0.00,,,0.00,Wunderground v.1.15,2013-01-11 09:29:00,
2013-01-11 02:34:00,29.7,27.4,29.58,SW,224,4.0,13.0,91,0.00,,,0.00,Wunderground v.1.15,2013-01-11 09:34:00,
2013-01-11 02:39:00,29.5,27.2,29.58,SSW,213,1.0,13.0,91,0.00,,,0.00,Wunderground v.1.15,2013-01-11 09:39:00,
2013-01-11 02:44:00,29.5,27.2,29.57,SW,233,6.0,10.0,91,0.00,,,0.00,Wunderground v.1.15,2013-01-11 09:44:00,
2013-01-11 02:49:00,29.5,27.2,29.57,SW,219,5.0,13.0,91,0.00,,,0.00,Wunderground v.1.15,2013-01-11 09:49:00,
2013-01-11 02:54:00,29.5,27.2,29.57,SW,216,3.0,12.0,91,0.00,,,0.00,Wunderground v.1.15,2013-01-11 09:54:00,
2013-01-11 02:59:00,29.5,27.2,29.57,WSW,250,2.0,12.0,91,0.00,,,0.00,Wunderground v.1.15,2013-01-11 09:59:00,
2013-01-11 03:04:00,29.7,27.4,29.57,SW,231,1.0,11.0,91,0.00,,,0.00,Wunderground v.1.15,2013-01-11 10:04:00,
2013-01-11 03:09:00,29.7,27.4,29.57,SW,228,0.0,11.0,91,0.00,,,0.00,Wunderground v.1.15,2013-01-11 10:09:00,
2013-01-11 03:14:00,29.8,27.5,29.56,WSW,249,6.0,7.0,91,0.00,,,0.00,Wunderground v.1.15,2013-01-11 10:14:00,
2013-01-11 03:19:00,30.0,27.7,29.56,SW,226,1.0,7.0,91,0.00,,,0.00,Wunderground v.1.15,2013-01-11 10:19:00,
2013-01-11 03:24:00,30.1,27.8,29.56,WSW,251,0.0,9.0,91,0.00,,,0.00,Wunderground v.1.15,2013-01-11 10:24:00,
2013-01-11 03:29:00,30.3,27.7,29.55,WSW,238,0.0,9.0,90,0.00,,,0.00,Wunderground v.1.15,2013-01-11 10:29:00,
2013-01-11 03:34:00,30.3,27.7,29.55,SW,228,1.0,10.0,90,0.00,,,0.00,Wunderground v.1.15,2013-01-11 10:34:00,
2013-01-11 03:39:00,30.4,27.8,29.55,SW,228,0.0,10.0,90,0.00,,,0.00,Wunderground v.1.15,2013-01-11 10:39:00,
2013-01-11 03:44:00,30.4,27.5,29.53,SW,228,0.0,2.0,89,0.00,,,0.00,Wunderground v.1.15,2013-01-11 10:44:00,
2013-01-11 03:49:00,30.3,27.4,29.53,SW,227,0.0,2.0,89,0.00,,,0.00,Wunderground v.1.15,2013-01-11 10:49:00,
2013-01-11 03:54:00,30.1,27.3,29.53,SW,227,0.0,0.0,89,0.00,,,0.00,Wunderground v.1.15,2013-01-11 10:54:00,
2013-01-11 03:59:00,30.0,26.9,29.53,SW,227,0.0,0.0,88,0.00,,,0.00,Wunderground v.1.15,2013-01-11 10:59:00,
2013-01-11 04:04:00,29.5,26.7,29.53,NNW,336,2.0,4.0,89,0.00,,,0.00,Wunderground v.1.15,2013-01-11 11:04:00,
2013-01-11 04:09:00,29.4,26.6,29.53,NNW,337,0.0,4.0,89,0.00,,,0.00,Wunderground v.1.15,2013-01-11 11:09:00,
2013-01-11 04:14:00,28.8,26.0,29.55,NNW,337,0.0,1.0,89,0.00,,,0.00,Wunderground v.1.15,2013-01-11 11:14:00,
2013-01-11 04:19:00,28.4,25.6,29.55,NNW,337,0.0,3.0,89,0.00,,,0.00,Wunderground v.1.15,2013-01-11 11:19:00,
2013-01-11 04:24:00,28.1,25.3,29.55,NNW,337,0.0,3.0,89,0.00,,,0.00,Wunderground v.1.15,2013-01-11 11:24:00,
2013-01-11 04:29:00,27.3,24.5,29.54,NNW,337,0.0,3.0,89,0.00,,,0.00,Wunderground v.1.15,2013-01-11 11:29:00,
2013-01-11 04:34:00,26.6,23.8,29.54,NNW,337,0.0,0.0,89,0.00,,,0.00,Wunderground v.1.15,2013-01-11 11:34:00,
2013-01-11 04:39:00,26.0,23.2,29.54,NNW,337,0.0,0.0,89,0.00,,,0.00,Wunderground v.1.15,2013-01-11 11:39:00,
2013-01-11 04:44:00,25.4,22.6,29.54,NNW,337,0.0,0.0,89,0.00,,,0.00,Wunderground v.1.15,2013-01-11 11:44:00,
2013-01-11 04:49:00,24.8,21.8,29.54,NNW,337,0.0,0.0,88,0.00,,,0.00,Wunderground v.1.15,2013-01-11 11:49:00,
2013-01-11 04:54:00,23.9,20.9,29.54,NNW,337,0.0,1.0,88,0.00,,,0.00,Wunderground v.1.15,2013-01-11 11:54:00,
2013-01-11 04:59:00,23.2,20.2,29.57,NNW,337,0.0,1.0,88,0.00,,,0.00,Wunderground v.1.15,2013-01-11 11:59:00,
2013-01-11 05:04:00,22.1,18.8,29.57,NNW,337,0.0,0.0,87,0.00,,,0.00,Wunderground v.1.15,2013-01-11 12:04:00,
2013-01-11 05:09:00,21.6,18.6,29.57,NNW,337,0.0,0.0,88,0.00,,,0.00,Wunderground v.1.15,2013-01-11 12:09:00,
2013-01-11 05:14:00,21.9,19.2,29.57,NNW,337,0.0,0.0,89,0.00,,,0.00,Wunderground v.1.15,2013-01-11 12:14:00,
2013-01-11 05:19:00,21.6,18.6,29.57,NNW,335,0.0,2.0,88,0.00,,,0.00,Wunderground v.1.15,2013-01-11 12:19:00,
2013-01-11 05:24:00,21.0,18.0,29.57,NNW,329,0.0,1.0,88,0.00,,,0.00,Wunderground v.1.15,2013-01-11 12:24:00,
2013-01-11 05:29:00,21.1,18.4,29.60,SW,214,1.0,4.0,89,0.00,,,0.00,Wunderground v.1.15,2013-01-11 12:29:00,
2013-01-11 05:34:00,21.8,19.1,29.60,SSW,198,1.0,4.0,89,0.00,,,0.00,Wunderground v.1.15,2013-01-11 12:34:00,
2013-01-11 05:39:00,23.0,20.5,29.60,SSW,212,0.0,9.0,90,0.00,,,0.00,Wunderground v.1.15,2013-01-11 12:39:00,
2013-01-11 05:44:00,23.8,20.8,29.59,SSW,211,5.0,7.0,88,0.00,,,0.00,Wunderground v.1.15,2013-01-11 12:44:00,
2013-01-11 05:49:00,24.4,20.8,29.59,SSW,194,2.0,7.0,86,0.00,,,0.00,Wunderground v.1.15,2013-01-11 12:49:00,
2013-01-11 05:55:00,24.8,20.7,29.59,SSW,194,10.0,11.0,84,0.00,,,0.00,Wunderground v.1.15,2013-01-11 12:55:00,
2013-01-11 06:00:00,26.0,20.1,29.60,South,178,14.0,18.0,78,0.00,,,0.00,Wunderground v.1.15,2013-01-11 13:00:00,
2013-01-11 06:05:00,26.9,20.0,29.60,SSW,205,0.0,17.0,75,0.00,,,0.00,Wunderground v.1.15,2013-01-11 13:05:00,
2013-01-11 06:10:00,27.2,20.0,29.60,South,178,0.0,5.0,74,0.00,,,0.00,Wunderground v.1.15,2013-01-11 13:10:00,
2013-01-11 06:15:00,27.2,19.7,29.58,SSW,203,0.0,11.0,73,0.00,,,0.00,Wunderground v.1.15,2013-01-11 13:15:00,
2013-01-11 06:20:00,26.9,19.7,29.58,SW,228,1.0,2.0,74,0.00,,,0.00,Wunderground v.1.15,2013-01-11 13:20:00,
2013-01-11 06:25:00,26.7,19.2,29.58,WSW,252,0.0,6.0,73,0.00,,,0.00,Wunderground v.1.15,2013-01-11 13:25:00,
2013-01-11 06:30:00,26.9,19.1,29.59,WSW,252,0.0,0.0,72,0.00,,,0.00,Wunderground v.1.15,2013-01-11 13:30:00,
2013-01-11 06:35:00,26.4,19.2,29.59,SW,219,1.0,7.0,74,0.00,,,0.00,Wunderground v.1.15,2013-01-11 13:35:00,
2013-01-11 06:40:00,26.7,18.2,29.59,South,184,2.0,2.0,70,0.00,,,0.00,Wunderground v.1.15,2013-01-11 13:40:00,
2013-01-11 06:45:00,27.2,17.7,29.61,WSW,252,1.0,6.0,67,0.00,,,0.00,Wunderground v.1.15,2013-01-11 13:45:00,
2013-01-11 06:50:00,27.2,18.4,29.61,West,264,0.0,1.0,69,0.00,,,0.00,Wunderground v.1.15,2013-01-11 13:50:00,
2013-01-11 06:55:00,27.0,18.5,29.61,West,271,3.0,6.0,70,0.00,,,0.00,Wunderground v.1.15,2013-01-11 13:55:00,
2013-01-11 07:00:00,27.0,18.8,29.62,WSW,250,1.0,4.0,71,0.00,,,0.00,Wunderground v.1.15,2013-01-11 14:00:00,
2013-01-11 07:05:00,26.9,18.7,29.62,WSW,252,3.0,6.0,71,0.00,,,0.00,Wunderground v.1.15,2013-01-11 14:05:00,
2013-01-11 07:10:00,26.7,18.6,29.62,WSW,252,0.0,2.0,71,0.00,,,0.00,Wunderground v.1.15,2013-01-11 14:10:00,
2013-01-11 07:15:00,26.9,18.4,29.64,WSW,253,1.0,2.0,70,0.00,,,0.00,Wunderground v.1.15,2013-01-11 14:15:00,
2013-01-11 07:20:00,26.9,18.1,29.64,WSW,252,0.0,1.0,69,0.00,,,0.00,Wunderground v.1.15,2013-01-11 14:20:00,
2013-01-11 07:25:00,26.9,17.7,29.64,WSW,252,0.0,2.0,68,0.00,,,0.00,Wunderground v.1.15,2013-01-11 14:25:00,
2013-01-11 07:30:00,26.6,17.5,29.64,WSW,252,1.0,2.0,68,0.00,,,0.00,Wunderground v.1.15,2013-01-11 14:30:00,
2013-01-11 07:35:00,26.4,17.3,29.64,WSW,252,0.0,2.0,68,0.00,,,0.00,Wunderground v.1.15,2013-01-11 14:35:00,
2013-01-11 07:40:00,26.4,16.9,29.64,South,188,0.0,1.0,67,0.00,,,0.00,Wunderground v.1.15,2013-01-11 14:40:00,
2013-01-11 07:45:00,26.4,16.9,29.66,South,188,0.0,1.0,67,0.00,,,0.00,Wunderground v.1.15,2013-01-11 14:45:00,
2013-01-11 07:50:00,26.3,16.8,29.66,South,188,0.0,0.0,67,0.00,,,0.00,Wunderground v.1.15,2013-01-11 14:50:00,
2013-01-11 07:55:00,26.0,17.2,29.66,South,188,1.0,2.0,69,0.00,,,0.00,Wunderground v.1.15,2013-01-11 14:55:00,
2013-01-11 08:00:00,25.8,17.4,29.68,SSW,213,3.0,6.0,70,0.00,,,0.00,Wunderground v.1.15,2013-01-11 15:00:00,
2013-01-11 08:05:00,26.0,17.9,29.68,SSW,202,2.0,15.0,71,0.00,,,0.00,Wunderground v.1.15,2013-01-11 15:05:00,
2013-01-11 08:10:00,25.6,17.8,29.68,SSW,213,14.0,14.0,72,0.00,,,0.00,Wunderground v.1.15,2013-01-11 15:10:00,
2013-01-11 08:15:00,25.3,18.2,29.63,SW,215,6.0,16.0,74,0.00,,,0.00,Wunderground v.1.15,2013-01-11 15:15:00,
2013-01-11 08:20:00,25.3,17.2,29.63,SSW,195,10.0,17.0,71,0.00,,,0.00,Wunderground v.1.15,2013-01-11 15:20:00,
2013-01-11 08:25:00,25.1,16.4,29.63,SW,220,6.0,18.0,69,0.00,,,0.00,Wunderground v.1.15,2013-01-11 15:25:00,
2013-01-11 08:30:00,25.0,16.3,29.64,South,190,9.0,16.0,69,0.00,,,0.00,Wunderground v.1.15,2013-01-11 15:30:00,
2013-01-11 08:35:00,24.8,16.1,29.64,South,178,6.0,16.0,69,0.00,,,0.00,Wunderground v.1.15,2013-01-11 15:35:00,
2013-01-11 08:40:00,24.7,16.0,29.64,SSW,210,10.0,15.0,69,0.00,,,0.00,Wunderground v.1.15,2013-01-11 15:40:00,
2013-01-11 08:45:00,24.5,16.1,29.65,SSW,201,4.0,21.0,70,0.00,,,0.00,Wunderground v.1.15,2013-01-11 15:45:00,
2013-01-11 08:50:00,24.4,15.3,29.65,SSW,207,10.0,14.0,68,0.00,,,0.00,Wunderground v.1.15,2013-01-11 15:50:00,
2013-01-11 08:55:00,24.4,15.0,29.65,SSE,168,5.0,15.0,67,0.00,,,0.00,Wunderground v.1.15,2013-01-11 15:55:00,
2013-01-11 09:00:00,24.4,14.7,29.65,South,191,6.0,11.0,66,0.00,,,0.00,Wunderground v.1.15,2013-01-11 16:00:00,
2013-01-11 09:05:00,24.8,14.7,29.65,SW,223,10.0,16.0,65,0.00,,,0.00,Wunderground v.1.15,2013-01-11 16:05:00,
2013-01-11 09:10:00,25.1,14.6,29.65,South,182,3.0,10.0,64,0.00,,,0.00,Wunderground v.1.15,2013-01-11 16:10:00,
2013-01-11 09:15:00,25.3,14.8,29.66,SSE,167,22.0,22.0,64,0.00,,,0.00,Wunderground v.1.15,2013-01-11 16:15:00,
2013-01-11 09:20:00,25.1,14.3,29.66,South,190,10.0,12.0,63,0.00,,,0.00,Wunderground v.1.15,2013-01-11 16:20:00,
2013-01-11 09:25:00,25.3,14.5,29.66,SSW,198,17.0,17.0,63,0.00,,,0.00,Wunderground v.1.15,2013-01-11 16:25:00,
2013-01-11 09:30:00,25.3,14.5,29.66,SSW,193,14.0,16.0,63,0.00,,,0.00,Wunderground v.1.15,2013-01-11 16:30:00,
2013-01-11 09:35:00,24.8,14.0,29.66,SSE,161,18.0,18.0,63,0.00,,,0.00,Wunderground v.1.15,2013-01-11 16:35:00,
2013-01-11 09:40:00,24.8,13.2,29.66,SW,229,9.0,15.0,61,0.00,,,0.00,Wunderground v.1.15,2013-01-11 16:40:00,
2013-01-11 09:45:00,24.8,12.1,29.66,SSW,205,13.0,15.0,58,0.00,,,0.00,Wunderground v.1.15,2013-01-11 16:45:00,
2013-01-11 09:50:00,24.7,12.0,29.66,SSW,205,10.0,15.0,58,0.00,,,0.00,Wunderground v.1.15,2013-01-11 16:50:00,
2013-01-11 09:55:00,24.7,12.0,29.66,South,175,10.0,17.0,58,0.00,,,0.00,Wunderground v.1.15,2013-01-11 16:55:00,
2013-01-11 10:00:00,24.7,11.2,29.67,South,187,5.0,11.0,56,0.00,,,0.00,Wunderground v.1.15,2013-01-11 17:00:00,
2013-01-11 10:05:00,24.8,10.5,29.67,SSW,200,9.0,22.0,54,0.00,,,0.00,Wunderground v.1.15,2013-01-11 17:05:00,
2013-01-11 10:10:00,25.1,10.8,29.67,South,177,13.0,17.0,54,0.00,,,0.00,Wunderground v.1.15,2013-01-11 17:10:00,
2013-01-11 10:15:00,25.8,10.6,29.67,South,181,4.0,17.0,52,0.00,,,0.00,Wunderground v.1.15,2013-01-11 17:15:00,
2013-01-11 10:20:00,27.0,9.9,29.67,WSW,243,7.0,15.0,48,0.00,,,0.00,Wunderground v.1.15,2013-01-11 17:20:00,
2013-01-11 10:25:00,27.2,10.1,29.67,NW,307,12.0,21.0,48,0.00,,,0.00,Wunderground v.1.15,2013-01-11 17:25:00,
2013-01-11 10:30:00,26.6,10.0,29.68,WSW,239,6.0,18.0,49,0.00,,,0.00,Wunderground v.1.15,2013-01-11 17:30:00,
2013-01-11 10:35:00,26.1,9.1,29.68,SW,232,12.0,18.0,48,0.00,,,0.00,Wunderground v.1.15,2013-01-11 17:35:00,
2013-01-11 10:40:00,26.3,9.2,29.68,SSW,209,12.0,20.0,48,0.00,,,0.00,Wunderground v.1.15,2013-01-11 17:40:00,
2013-01-11 10:45:00,26.3,9.7,29.70,WSW,238,3.0,24.0,49,0.00,,,0.00,Wunderground v.1.15,2013-01-11 17:45:00,
2013-01-11 10:50:00,27.0,10.4,29.70,West,268,5.0,7.0,49,0.00,,,0.00,Wunderground v.1.15,2013-01-11 17:50:00,
2013-01-11 10:55:00,27.2,10.1,29.70,West,275,10.0,16.0,48,0.00,,,0.00,Wunderground v.1.15,2013-01-11 17:55:00,
2013-01-11 11:00:00,26.3,10.6,29.69,WSW,247,8.0,19.0,51,0.00,,,0.00,Wunderground v.1.15,2013-01-11 18:00:00,
2013-01-11 11:05:00,25.8,11.0,29.69,WNW,283,14.0,19.0,53,0.00,,,0.00,Wunderground v.1.15,2013-01-11 18:05:00,
2013-01-11 11:10:00,26.0,11.2,29.69,WSW,252,10.0,15.0,53,0.00,,,0.00,Wunderground v.1.15,2013-01-11 18:10:00,
2013-01-11 11:15:00,25.8,10.6,29.71,SW,217,10.0,23.0,52,0.00,,,0.00,Wunderground v.1.15,2013-01-11 18:15:00,
2013-01-11 11:21:00,25.8,11.0,29.71,SSW,210,11.0,16.0,53,0.00,,,0.00,Wunderground v.1.15,2013-01-11 18:21:00,
2013-01-11 11:26:00,26.0,10.8,29.71,SSW,202,12.0,17.0,52,0.00,,,0.00,Wunderground v.1.15,2013-01-11 18:26:00,
2013-01-11 11:31:00,26.0,11.2,29.70,South,178,12.0,16.0,53,0.00,,,0.00,Wunderground v.1.15,2013-01-11 18:31:00,
2013-01-11 11:36:00,25.8,10.6,29.70,SSW,209,12.0,29.0,52,0.00,,,0.00,Wunderground v.1.15,2013-01-11 18:36:00,
2013-01-11 11:41:00,25.7,10.0,29.70,South,190,18.0,18.0,51,0.00,,,0.00,Wunderground v.1.15,2013-01-11 18:41:00,
2013-01-11 11:46:00,25.8,8.3,29.70,SW,220,21.0,32.0,47,0.00,,,0.00,Wunderground v.1.15,2013-01-11 18:46:00,
2013-01-11 11:51:00,25.4,7.9,29.70,SSE,166,21.0,39.0,47,0.00,,,0.00,Wunderground v.1.15,2013-01-11 18:51:00,
2013-01-11 11:56:00,25.4,7.9,29.70,SW,217,20.0,39.0,47,0.00,,,0.00,Wunderground v.1.15,2013-01-11 18:56:00,
2013-01-11 12:01:00,25.6,6.7,29.69,South,190,17.0,21.0,44,0.00,,,0.00,Wunderground v.1.15,2013-01-11 19:01:00,
2013-01-11 12:06:00,25.8,5.8,29.69,SW,218,17.0,23.0,42,0.00,,,0.00,Wunderground v.1.15,2013-01-11 19:06:00,
2013-01-11 12:11:00,25.8,6.3,29.69,SW,218,10.0,23.0,43,0.00,,,0.00,Wunderground v.1.15,2013-01-11 19:11:00,
2013-01-11 12:16:00,26.0,7.5,29.70,SW,234,23.0,25.0,45,0.00,,,0.00,Wunderground v.1.15,2013-01-11 19:16:00,
2013-01-11 12:21:00,25.8,6.9,29.70,South,177,16.0,24.0,44,0.00,,,0.00,Wunderground v.1.15,2013-01-11 19:21:00,
2013-01-11 12:26:00,26.0,8.5,29.70,SW,225,5.0,24.0,47,0.00,,,0.00,Wunderground v.1.15,2013-01-11 19:26:00,
2013-01-11 12:31:00,26.1,7.6,29.70,SW,216,16.0,21.0,45,0.00,,,0.00,Wunderground v.1.15,2013-01-11 19:31:00,
2013-01-11 12:36:00,26.1,8.1,29.70,SW,229,13.0,27.0,46,0.00,,,0.00,Wunderground v.1.15,2013-01-11 19:36:00,
2013-01-11 12:41:00,26.3,6.3,29.70,SW,229,6.0,18.0,42,0.00,,,0.00,Wunderground v.1.15,2013-01-11 19:41:00,
2013-01-11 12:46:00,26.7,5.6,29.70,SW,224,6.0,21.0,40,0.00,,,0.00,Wunderground v.1.15,2013-01-11 19:46:00,
2013-01-11 12:51:00,26.9,5.8,29.70,South,188,13.0,17.0,40,0.00,,,0.00,Wunderground v.1.15,2013-01-11 19:51:00,
2013-01-11 12:56:00,26.9,6.3,29.70,SW,221,5.0,22.0,41,0.00,,,0.00,Wunderground v.1.15,2013-01-11 19:56:00,
2013-01-11 13:01:00,27.2,4.9,29.70,SW,235,10.0,16.0,38,0.00,,,0.00,Wunderground v.1.15,2013-01-11 20:01:00,
2013-01-11 13:06:00,27.5,5.7,29.70,WSW,252,10.0,16.0,39,0.00,,,0.00,Wunderground v.1.15,2013-01-11 20:06:00,
2013-01-11 13:11:00,27.5,4.6,29.70,South,175,12.0,25.0,37,0.00,,,0.00,Wunderground v.1.15,2013-01-11 20:11:00,
2013-01-11 13:16:00,27.2,4.9,29.76,SSE,155,13.0,35.0,38,0.00,,,0.00,Wunderground v.1.15,2013-01-11 20:16:00,
2013-01-11 13:21:00,27.5,5.2,29.76,SSW,201,15.0,16.0,38,0.00,,,0.00,Wunderground v.1.15,2013-01-11 20:21:00,
2013-01-11 13:26:00,27.8,5.4,29.76,SW,221,11.0,25.0,38,0.00,,,0.00,Wunderground v.1.15,2013-01-11 20:26:00,
2013-01-11 13:31:00,27.6,5.3,29.76,SW,232,11.0,21.0,38,0.00,,,0.00,Wunderground v.1.15,2013-01-11 20:31:00,
2013-01-11 13:36:00,27.5,5.7,29.76,SW,232,15.0,21.0,39,0.00,,,0.00,Wunderground v.1.15,2013-01-11 20:36:00,
2013-01-11 13:41:00,27.5,5.2,29.76,WSW,248,12.0,12.0,38,0.00,,,0.00,Wunderground v.1.15,2013-01-11 20:41:00,
2013-01-11 13:46:00,27.3,4.4,29.78,WSW,238,14.0,21.0,37,0.00,,,0.00,Wunderground v.1.15,2013-01-11 20:46:00,
2013-01-11 13:51:00,27.3,5.6,29.78,SSW,209,11.0,15.0,39,0.00,,,0.00,Wunderground v.1.15,2013-01-11 20:51:00,
2013-01-11 13:56:00,27.5,4.6,29.78,SW,231,13.0,16.0,37,0.00,,,0.00,Wunderground v.1.15,2013-01-11 20:56:00,
2013-01-11 14:01:00,27.6,4.1,29.78,WSW,238,9.0,20.0,36,0.00,,,0.00,Wunderground v.1.15,2013-01-11 21:01:00,
2013-01-11 14:06:00,27.9,3.7,29.78,WSW,245,11.0,24.0,35,0.00,,,0.00,Wunderground v.1.15,2013-01-11 21:06:00,
2013-01-11 14:11:00,28.5,3.6,29.78,SSW,205,11.0,12.0,34,0.00,,,0.00,Wunderground v.1.15,2013-01-11 21:11:00,
2013-01-11 14:16:00,29.1,2.2,29.80,WSW,251,2.0,23.0,31,0.00,,,0.00,Wunderground v.1.15,2013-01-11 21:16:00,
2013-01-11 14:21:00,29.4,3.1,29.80,SW,217,14.0,18.0,32,0.00,,,0.00,Wunderground v.1.15,2013-01-11 21:21:00,
2013-01-11 14:26:00,29.0,2.8,29.80,SW,228,7.0,19.0,32,0.00,,,0.00,Wunderground v.1.15,2013-01-11 21:26:00,
2013-01-11 14:31:00,29.1,2.9,29.81,WSW,244,9.0,16.0,32,0.00,,,0.00,Wunderground v.1.15,2013-01-11 21:31:00,
2013-01-11 14:36:00,29.3,2.4,29.81,SSW,207,12.0,19.0,31,0.00,,,0.00,Wunderground v.1.15,2013-01-11 21:36:00,
2013-01-11 14:41:00,29.3,2.4,29.81,SSW,211,13.0,20.0,31,0.00,,,0.00,Wunderground v.1.15,2013-01-11 21:41:00,
2013-01-11 14:46:00,29.3,2.4,29.81,SSW,213,13.0,31.0,31,0.00,,,0.00,Wunderground v.1.15,2013-01-11 21:46:00,
2013-01-11 14:51:00,29.3,3.0,29.81,SW,222,11.0,14.0,32,0.00,,,0.00,Wunderground v.1.15,2013-01-11 21:51:00,
2013-01-11 14:56:00,29.4,2.4,29.81,SSW,195,16.0,22.0,31,0.00,,,0.00,Wunderground v.1.15,2013-01-11 21:56:00,
2013-01-11 15:01:00,29.3,2.4,29.81,SSE,168,9.0,19.0,31,0.00,,,0.00,Wunderground v.1.15,2013-01-11 22:01:00,
2013-01-11 15:06:00,29.5,3.2,29.81,WSW,237,12.0,20.0,32,0.00,,,0.00,Wunderground v.1.15,2013-01-11 22:06:00,
2013-01-11 15:11:00,30.1,0.9,29.81,South,178,5.0,20.0,28,0.00,,,0.00,Wunderground v.1.15,2013-01-11 22:11:00,
2013-01-11 15:16:00,29.8,1.4,29.82,WSW,242,10.0,24.0,29,0.00,,,0.00,Wunderground v.1.15,2013-01-11 22:16:00,
2013-01-11 15:21:00,29.5,1.8,29.82,SW,217,5.0,16.0,30,0.00,,,0.00,Wunderground v.1.15,2013-01-11 22:21:00,
2013-01-11 15:26:00,29.4,2.4,29.82,SW,217,7.0,17.0,31,0.00,,,0.00,Wunderground v.1.15,2013-01-11 22:26:00,
2013-01-11 15:31:00,28.5,2.3,29.83,SW,225,8.0,11.0,32,0.00,,,0.00,Wunderground v.1.15,2013-01-11 22:31:00,
2013-01-11 15:36:00,27.6,2.2,29.83,SSW,192,5.0,21.0,33,0.00,,,0.00,Wunderground v.1.15,2013-01-11 22:36:00,
2013-01-11 15:41:00,27.6,2.2,29.83,SW,229,8.0,19.0,33,0.00,,,0.00,Wunderground v.1.15,2013-01-11 22:41:00,
2013-01-11 15:46:00,27.3,1.9,29.85,SW,221,10.0,19.0,33,0.00,,,0.00,Wunderground v.1.15,2013-01-11 22:46:00,
2013-01-11 15:51:00,27.0,1.0,29.85,WSW,241,15.0,21.0,32,0.00,,,0.00,Wunderground v.1.15,2013-01-11 22:51:00,
2013-01-11 15:56:00,26.7,1.4,29.85,SW,228,12.0,21.0,33,0.00,,,0.00,Wunderground v.1.15,2013-01-11 22:56:00,
2013-01-11 16:01:00,26.9,0.9,29.86,WSW,246,9.0,17.0,32,0.00,,,0.00,Wunderground v.1.15,2013-01-11 23:01:00,
2013-01-11 16:06:00,27.2,1.2,29.86,South,187,7.0,17.0,32,0.00,,,0.00,Wunderground v.1.15,2013-01-11 23:06:00,
2013-01-11 16:11:00,27.0,1.7,29.86,WSW,240,12.0,17.0,33,0.00,,,0.00,Wunderground v.1.15,2013-01-11 23:11:00,
2013-01-11 16:16:00,26.4,1.8,29.89,SW,228,9.0,20.0,34,0.00,,,0.00,Wunderground v.1.15,2013-01-11 23:16:00,
2013-01-11 16:21:00,26.0,2.0,29.89,SSW,202,11.0,20.0,35,0.00,,,0.00,Wunderground v.1.15,2013-01-11 23:21:00,
2013-01-11 16:26:00,25.7,1.8,29.89,SSW,202,13.0,25.0,35,0.00,,,0.00,Wunderground v.1.15,2013-01-11 23:26:00,
2013-01-11 16:31:00,25.6,2.3,29.90,SSW,211,13.0,21.0,36,0.00,,,0.00,Wunderground v.1.15,2013-01-11 23:31:00,
2013-01-11 16:36:00,25.6,2.9,29.90,SSW,206,13.0,25.0,37,0.00,,,0.00,Wunderground v.1.15,2013-01-11 23:36:00,
2013-01-11 16:41:00,25.4,1.5,29.90,South,188,9.0,21.0,35,0.00,,,0.00,Wunderground v.1.15,2013-01-11 23:41:00,
2013-01-11 16:46:00,25.4,2.1,29.91,South,186,16.0,21.0,36,0.00,,,0.00,Wunderground v.1.15,2013-01-11 23:46:00,
2013-01-11 16:51:00,25.4,0.9,29.91,SSW,198,11.0,20.0,34,0.00,,,0.00,Wunderground v.1.15,2013-01-11 23:51:00,
2013-01-11 16:56:00,25.4,0.2,29.91,SW,221,4.0,21.0,33,0.00,,,0.00,Wunderground v.1.15,2013-01-11 23:56:00,
2013-01-11 17:01:00,25.3,0.8,29.91,SSW,198,7.0,19.0,34,0.00,,,0.00,Wunderground v.1.15,2013-01-12 00:01:00,
2013-01-11 17:06:00,25.1,0.6,29.91,SSW,205,9.0,19.0,34,0.00,,,0.00,Wunderground v.1.15,2013-01-12 00:06:00,
2013-01-11 17:11:00,25.0,0.5,29.91,SW,232,11.0,17.0,34,0.00,,,0.00,Wunderground v.1.15,2013-01-12 00:11:00,
2013-01-11 17:16:00,24.5,0.7,29.91,SSW,192,16.0,20.0,35,0.00,,,0.00,Wunderground v.1.15,2013-01-12 00:16:00,
2013-01-11 17:21:00,24.5,0.7,29.91,SSW,212,17.0,18.0,35,0.00,,,0.00,Wunderground v.1.15,2013-01-12 00:21:00,
2013-01-11 17:27:00,24.5,0.7,29.91,SSW,206,10.0,19.0,35,0.00,,,0.00,Wunderground v.1.15,2013-01-12 00:27:00,
2013-01-11 17:32:00,24.4,1.2,29.92,SSW,194,14.0,16.0,36,0.00,,,0.00,Wunderground v.1.15,2013-01-12 00:32:00,
2013-01-11 17:37:00,24.4,1.2,29.92,South,186,15.0,21.0,36,0.00,,,0.00,Wunderground v.1.15,2013-01-12 00:37:00,
2013-01-11 17:42:00,24.1,1.5,29.92,SSW,209,11.0,16.0,37,0.00,,,0.00,Wunderground v.1.15,2013-01-12 00:42:00,
2013-01-11 17:47:00,23.9,0.8,29.93,SSW,198,7.0,19.0,36,0.00,,,0.00,Wunderground v.1.15,2013-01-12 00:47:00,
2013-01-11 17:52:00,24.1,1.0,29.93,SSW,205,8.0,17.0,36,0.00,,,0.00,Wunderground v.1.15,2013-01-12 00:52:00,
2013-01-11 17:57:00,24.1,1.0,29.93,SSW,198,6.0,21.0,36,0.00,,,0.00,Wunderground v.1.15,2013-01-12 00:57:00,
2013-01-11 18:02:00,23.9,0.8,29.93,SSW,198,8.0,14.0,36,0.00,,,0.00,Wunderground v.1.15,2013-01-12 01:02:00,
2013-01-11 18:07:00,23.9,0.8,29.93,SW,218,7.0,18.0,36,0.00,,,0.00,Wunderground v.1.15,2013-01-12 01:07:00,
2013-01-11 18:12:00,23.8,0.7,29.93,SSW,202,11.0,14.0,36,0.00,,,0.00,Wunderground v.1.15,2013-01-12 01:12:00,
2013-01-11 18:17:00,23.6,0.5,29.94,SW,217,11.0,18.0,36,0.00,,,0.00,Wunderground v.1.15,2013-01-12 01:17:00,
2013-01-11 18:22:00,23.5,0.4,29.94,SSW,199,0.0,13.0,36,0.00,,,0.00,Wunderground v.1.15,2013-01-12 01:22:00,
2013-01-11 18:27:00,23.2,0.1,29.94,SW,221,1.0,13.0,36,0.00,,,0.00,Wunderground v.1.15,2013-01-12 01:27:00,
2013-01-11 18:32:00,23.0,0.0,29.95,SSW,200,2.0,13.0,36,0.00,,,0.00,Wunderground v.1.15,2013-01-12 01:32:00,
2013-01-11 18:37:00,23.2,-0.5,29.95,WSW,239,5.0,13.0,35,0.00,,,0.00,Wunderground v.1.15,2013-01-12 01:37:00,
2013-01-11 18:42:00,23.0,-0.6,29.95,SW,214,6.0,8.0,35,0.00,,,0.00,Wunderground v.1.15,2013-01-12 01:42:00,
2013-01-11 18:47:00,22.5,-0.5,29.96,SW,229,6.0,9.0,36,0.00,,,0.00,Wunderground v.1.15,2013-01-12 01:47:00,
2013-01-11 18:52:00,22.2,-0.7,29.96,SW,219,2.0,7.0,36,0.00,,,0.00,Wunderground v.1.15,2013-01-12 01:52:00,
2013-01-11 18:57:00,21.9,-1.0,29.96,SW,217,3.0,13.0,36,0.00,,,0.00,Wunderground v.1.15,2013-01-12 01:57:00,
2013-01-11 19:02:00,21.6,-1.3,29.98,SSW,210,3.0,10.0,36,0.00,,,0.00,Wunderground v.1.15,2013-01-12 02:02:00,
2013-01-11 19:07:00,21.4,-1.5,29.98,SW,217,5.0,11.0,36,0.00,,,0.00,Wunderground v.1.15,2013-01-12 02:07:00,
2013-01-11 19:12:00,21.3,-1.6,29.98,SW,214,4.0,6.0,36,0.00,,,0.00,Wunderground v.1.15,2013-01-12 02:12:00,
2013-01-11 19:17:00,21.4,-1.5,30.00,SSW,205,2.0,11.0,36,0.00,,,0.00,Wunderground v.1.15,2013-01-12 02:17:00,
2013-01-11 19:22:00,21.4,-1.5,30.00,SSW,207,12.0,14.0,36,0.00,,,0.00,Wunderground v.1.15,2013-01-12 02:22:00,
2013-01-11 19:27:00,21.6,-1.3,30.00,SW,226,2.0,14.0,36,0.00,,,0.00,Wunderground v.1.15,2013-01-12 02:27:00,
2013-01-11 19:32:00,21.6,-1.3,29.99,SSW,211,1.0,7.0,36,0.00,,,0.00,Wunderground v.1.15,2013-01-12 02:32:00,
2013-01-11 19:37:00,21.4,-0.9,29.99,SSW,211,1.0,7.0,37,0.00,,,0.00,Wunderground v.1.15,2013-01-12 02:37:00,
2013-01-11 19:42:00,21.3,-1.0,29.99,SSW,209,5.0,5.0,37,0.00,,,0.00,Wunderground v.1.15,2013-01-12 02:42:00,
2013-01-11 19:47:00,21.1,-1.2,30.01,SSW,192,1.0,8.0,37,0.00,,,0.00,Wunderground v.1.15,2013-01-12 02:47:00,
2013-01-11 19:52:00,21.3,-1.0,30.01,SW,217,1.0,4.0,37,0.00,,,0.00,Wunderground v.1.15,2013-01-12 02:52:00,
2013-01-11 19:57:00,21.3,-1.0,30.01,SSW,200,3.0,9.0,37,0.00,,,0.00,Wunderground v.1.15,2013-01-12 02:57:00,
2013-01-11 20:02:00,21.3,-1.0,30.01,SSW,198,0.0,7.0,37,0.00,,,0.00,Wunderground v.1.15,2013-01-12 03:02:00,
2013-01-11 20:07:00,21.0,-0.7,30.01,South,184,0.0,7.0,38,0.00,,,0.00,Wunderground v.1.15,2013-01-12 03:07:00,
2013-01-11 20:12:00,20.5,-0.6,30.01,South,182,2.0,3.0,39,0.00,,,0.00,Wunderground v.1.15,2013-01-12 03:12:00,
2013-01-11 20:17:00,20.0,-0.5,30.03,South,181,0.0,3.0,40,0.00,,,0.00,Wunderground v.1.15,2013-01-12 03:17:00,
2013-01-11 20:22:00,19.4,-0.5,30.03,South,182,2.0,3.0,41,0.00,,,0.00,Wunderground v.1.15,2013-01-12 03:22:00,
2013-01-11 20:27:00,18.0,-0.8,30.03,South,182,0.0,3.0,43,0.00,,,0.00,Wunderground v.1.15,2013-01-12 03:27:00,
2013-01-11 20:32:00,15.4,-2.2,30.05,South,182,0.0,1.0,45,0.00,,,0.00,Wunderground v.1.15,2013-01-12 03:32:00,
2013-01-11 20:37:00,14.1,-2.0,30.05,South,182,0.0,1.0,48,0.00,,,0.00,Wunderground v.1.15,2013-01-12 03:37:00,
2013-01-11 20:42:00,13.1,-2.1,30.05,South,182,1.0,1.0,50,0.00,,,0.00,Wunderground v.1.15,2013-01-12 03:42:00,
2013-01-11 20:47:00,11.9,-2.8,30.08,South,182,0.0,1.0,51,0.00,,,0.00,Wunderground v.1.15,2013-01-12 03:47:00,
2013-01-11 20:52:00,11.4,-2.8,30.08,South,182,0.0,1.0,52,0.00,,,0.00,Wunderground v.1.15,2013-01-12 03:52:00,
2013-01-11 20:57:00,12.4,-2.3,30.08,South,182,0.0,2.0,51,0.00,,,0.00,Wunderground v.1.15,2013-01-12 03:57:00,
2013-01-11 21:02:00,12.8,-2.4,30.09,South,182,0.0,1.0,50,0.00,,,0.00,Wunderground v.1.15,2013-01-12 04:02:00,
2013-01-11 21:07:00,12.6,-1.7,30.09,South,182,0.0,1.0,52,0.00,,,0.00,Wunderground v.1.15,2013-01-12 04:07:00,
2013-01-11 21:12:00,11.7,-2.6,30.09,South,182,0.0,1.0,52,0.00,,,0.00,Wunderground v.1.15,2013-01-12 04:12:00,
2013-01-11 21:17:00,11.1,-2.7,30.09,South,182,0.0,1.0,53,0.00,,,0.00,Wunderground v.1.15,2013-01-12 04:17:00,
2013-01-11 21:22:00,10.0,-3.8,30.09,South,182,0.0,2.0,53,0.00,,,0.00,Wunderground v.1.15,2013-01-12 04:22:00,
2013-01-11 21:27:00,9.9,-3.5,30.09,South,182,0.0,2.0,54,0.00,,,0.00,Wunderground v.1.15,2013-01-12 04:27:00,
2013-01-11 21:32:00,9.0,-4.7,30.10,South,182,0.0,1.0,53,0.00,,,0.00,Wunderground v.1.15,2013-01-12 04:32:00,
2013-01-11 21:37:00,7.9,-4.6,30.10,South,182,0.0,1.0,56,0.00,,,0.00,Wunderground v.1.15,2013-01-12 04:37:00,
2013-01-11 21:42:00,7.2,-5.2,30.10,South,182,0.0,1.0,56,0.00,,,0.00,Wunderground v.1.15,2013-01-12 04:42:00,
2013-01-11 21:47:00,6.3,-5.7,30.12,South,182,0.0,2.0,57,0.00,,,0.00,Wunderground v.1.15,2013-01-12 04:47:00,
2013-01-11 21:52:00,6.1,-5.2,30.12,South,182,0.0,0.0,59,0.00,,,0.00,Wunderground v.1.15,2013-01-12 04:52:00,
2013-01-11 21:57:00,7.0,-3.3,30.12,South,182,0.0,1.0,62,0.00,,,0.00,Wunderground v.1.15,2013-01-12 04:57:00,
2013-01-11 22:00:00,7.6,-3.1,30.12,South,182,0.0,0.0,61,0.00,,,0.00,Wunderground v.1.15,2013-01-12 05:00:00,
2013-01-11 22:01:00,7.7,-3.3,30.12,South,182,0.0,0.0,60,0.00,,,0.00,Wunderground v.1.15,2013-01-12 05:01:00,
2013-01-11 22:03:00,7.6,-3.8,30.12,South,182,0.0,0.0,59,0.00,,,0.00,Wunderground v.1.15,2013-01-12 05:03:00,
2013-01-11 22:08:00,6.1,-5.5,30.12,South,182,0.0,0.0,58,0.00,,,0.00,Wunderground v.1.15,2013-01-12 05:08:00,
2013-01-11 22:13:00,5.2,-6.0,30.14,South,182,0.0,2.0,59,0.00,,,0.00,Wunderground v.1.15,2013-01-12 05:13:00,
2013-01-11 22:18:00,5.0,-5.9,30.14,South,182,0.0,2.0,60,0.00,,,0.00,Wunderground v.1.15,2013-01-12 05:18:00,
2013-01-11 22:23:00,4.5,-6.0,30.14,South,182,0.0,1.0,61,0.00,,,0.00,Wunderground v.1.15,2013-01-12 05:23:00,
2013-01-11 22:28:00,4.7,-5.1,30.14,South,182,1.0,2.0,63,0.00,,,0.00,Wunderground v.1.15,2013-01-12 05:28:00,
2013-01-11 22:33:00,5.2,-4.7,30.14,South,182,0.0,1.0,63,0.00,,,0.00,Wunderground v.1.15,2013-01-12 05:33:00,
2013-01-11 22:38:00,5.4,-4.8,30.14,South,182,0.0,1.0,62,0.00,,,0.00,Wunderground v.1.15,2013-01-12 05:38:00,
2013-01-11 22:43:00,5.2,-4.7,30.15,South,182,0.0,2.0,63,0.00,,,0.00,Wunderground v.1.15,2013-01-12 05:43:00,
2013-01-11 22:48:00,4.8,-5.1,30.15,South,182,0.0,2.0,63,0.00,,,0.00,Wunderground v.1.15,2013-01-12 05:48:00,
2013-01-11 22:53:00,4.7,-4.8,30.15,South,182,0.0,0.0,64,0.00,,,0.00,Wunderground v.1.15,2013-01-12 05:53:00,
2013-01-11 22:58:00,3.9,-6.2,30.15,South,182,0.0,0.0,62,0.00,,,0.00,Wunderground v.1.15,2013-01-12 05:58:00,
2013-01-11 23:04:00,3.2,-6.9,30.15,South,182,0.0,0.0,62,0.00,,,0.00,Wunderground v.1.15,2013-01-12 06:04:00,
2013-01-11 23:09:00,2.8,-7.0,30.15,South,182,0.0,0.0,63,0.00,,,0.00,Wunderground v.1.15,2013-01-12 06:09:00,
2013-01-11 23:14:00,2.4,-7.0,30.17,South,182,0.0,0.0,64,0.00,,,0.00,Wunderground v.1.15,2013-01-12 06:14:00,
2013-01-11 23:19:00,2.0,-7.4,30.17,South,182,0.0,0.0,64,0.00,,,0.00,Wunderground v.1.15,2013-01-12 06:19:00,
2013-01-11 23:24:00,1.5,-7.9,30.17,South,182,0.0,0.0,64,0.00,,,0.00,Wunderground v.1.15,2013-01-12 06:24:00,
2013-01-11 23:29:00,0.9,-8.4,30.17,South,182,0.0,0.0,64,0.00,,,0.00,Wunderground v.1.15,2013-01-12 06:29:00,
2013-01-11 23:34:00,0.3,-9.0,30.17,South,182,0.0,0.0,64,0.00,,,0.00,Wunderground v.1.15,2013-01-12 06:34:00,
2013-01-11 23:39:00,-0.2,-9.5,30.17,South,182,0.0,0.0,64,0.00,,,0.00,Wunderground v.1.15,2013-01-12 06:39:00,
2013-01-11 23:44:00,-0.6,-9.6,30.19,South,182,0.0,0.0,65,0.00,,,0.00,Wunderground v.1.15,2013-01-12 06:44:00,
2013-01-11 23:49:00,-1.0,-9.6,30.19,South,182,0.0,0.0,66,0.00,,,0.00,Wunderground v.1.15,2013-01-12 06:49:00,
2013-01-11 23:54:00,-1.6,-10.5,30.19,South,182,0.0,0.0,65,0.00,,,0.00,Wunderground v.1.15,2013-01-12 06:54:00,
2013-01-11 23:59:00,-1.6,-9.9,30.21,South,182,0.0,2.0,67,0.00,,,0.00,Wunderground v.1.15,2013-01-12 06:59:00,